Time;durP1;ratioP1;P1;durP2;ratioP2;P2;SDS_P1;SDS_P2;PMS_P1;PMS_P2;Temp;Humidity;BMP_temperature;BMP_pressure;BME280_temperature;BME280_humidity;BME280_pressure;Samples;Min_cycle;Max_cycle;Signal;HPM_P1;HPM_P2
2023/07/07 00:02:06;;;;;;;16.65;9.88;;;;;;;;;;5047612;28;20056;-71
2023/07/07 00:04:32;;;;;;;18.52;10.57;;;;;;;;;;5014302;28;20056;-71
2023/07/07 00:06:59;;;;;;;19.60;10.75;;;;;;;;;;5025745;28;20112;-72
2023/07/07 00:09:25;;;;;;;19.65;11.43;;;;;;;;;;5013490;28;20053;-72
2023/07/07 00:11:51;;;;;;;18.23;11.40;;;;;;;;;;5046803;28;20033;-71
2023/07/07 00:14:17;;;;;;;20.52;12.35;;;;;;;;;;5047637;28;20025;-71
2023/07/07 00:16:43;;;;;;;21.58;13.02;;;;;;;;;;5028610;28;20037;-71
2023/07/07 00:19:10;;;;;;;19.70;12.88;;;;;;;;;;5033541;28;20029;-70
2023/07/07 00:21:40;;;;;;;22.17;12.70;;;;;;;;;;5025697;28;20409;-71
2023/07/07 00:24:07;;;;;;;20.42;13.23;;;;;;;;;;5047142;28;20033;-71
2023/07/07 00:26:34;;;;;;;25.23;14.10;;;;;;;;;;5049979;28;20033;-71
2023/07/07 00:29:01;;;;;;;21.92;13.93;;;;;;;;;;5052049;28;20348;-71
2023/07/07 00:31:28;;;;;;;23.20;13.63;;;;;;;;;;5044304;28;20135;-70
2023/07/07 00:33:55;;;;;;;20.77;13.57;;;;;;;;;;5015841;28;20027;-71
2023/07/07 00:36:21;;;;;;;22.95;14.50;;;;;;;;;;5032804;28;20028;-72
2023/07/07 00:38:48;;;;;;;22.80;16.38;;;;;;;;;;5050120;28;20021;-71
2023/07/07 00:41:14;;;;;;;21.63;13.27;;;;;;;;;;5051028;28;20061;-71
2023/07/07 00:43:40;;;;;;;23.80;14.75;;;;;;;;;;5016762;28;20029;-70
2023/07/07 00:46:08;;;;;;;24.30;16.10;;;;;;;;;;5046355;28;20063;-70
2023/07/07 00:48:37;;;;;;;22.77;16.02;;;;;;;;;;5033456;28;20296;-71
2023/07/07 00:51:03;;;;;;;25.63;15.55;;;;;;;;;;5013657;28;20029;-70
2023/07/07 00:53:30;;;;;;;25.48;16.35;;;;;;;;;;5031383;28;20029;-71
2023/07/07 00:56:02;;;;;;;27.75;18.05;;;;;;;;;;5033131;28;20020;-71
2023/07/07 00:58:29;;;;;;;28.40;18.33;;;;;;;;;;5033219;28;20526;-71
2023/07/07 01:01:07;;;;;;;26.50;18.48;;;;;;;;;;5030714;28;20736;-71
2023/07/07 01:03:38;;;;;;;30.13;20.10;;;;;;;;;;5044018;28;20381;-71
2023/07/07 01:06:06;;;;;;;32.10;21.88;;;;;;;;;;5044701;28;20049;-71
2023/07/07 01:08:33;;;;;;;37.75;23.17;;;;;;;;;;5051629;28;20025;-72
2023/07/07 01:10:59;;;;;;;32.35;23.30;;;;;;;;;;5032211;28;20462;-71
2023/07/07 01:13:26;;;;;;;37.78;25.67;;;;;;;;;;5031840;28;20037;-72
2023/07/07 01:15:59;;;;;;;39.03;26.63;;;;;;;;;;5050852;28;20118;-72
2023/07/07 01:18:39;;;;;;;35.35;25.95;;;;;;;;;;5034259;28;20497;-72
2023/07/07 01:21:17;;;;;;;40.08;28.27;;;;;;;;;;5048969;28;20025;-71
2023/07/07 01:23:44;;;;;;;42.88;28.08;;;;;;;;;;5033408;28;20037;-73
2023/07/07 01:26:28;;;;;;;45.17;30.42;;;;;;;;;;5032084;28;20052;-71
2023/07/07 01:29:14;;;;;;;39.40;28.30;;;;;;;;;;5050994;28;20037;-71
2023/07/07 01:31:43;;;;;;;38.80;28.42;;;;;;;;;;5050478;28;20032;-70
2023/07/07 01:34:11;;;;;;;40.42;29.33;;;;;;;;;;5043072;28;20082;-70
2023/07/07 01:36:37;;;;;;;43.38;29.35;;;;;;;;;;5029048;28;20044;-71
2023/07/07 01:39:03;;;;;;;38.45;27.10;;;;;;;;;;5045695;28;20087;-71
2023/07/07 01:41:34;;;;;;;37.58;27.52;;;;;;;;;;5030376;28;20505;-70
2023/07/07 01:44:12;;;;;;;40.92;27.70;;;;;;;;;;5047666;28;20032;-71
2023/07/07 01:46:43;;;;;;;45.20;29.10;;;;;;;;;;5047289;28;20451;-71
2023/07/07 01:49:21;;;;;;;40.60;27.83;;;;;;;;;;5014254;28;20021;-71
2023/07/07 01:51:51;;;;;;;41.38;28.42;;;;;;;;;;5027064;28;20033;-72
2023/07/07 01:54:18;;;;;;;41.22;28.23;;;;;;;;;;5014599;28;20025;-71
2023/07/07 01:56:47;;;;;;;41.67;26.75;;;;;;;;;;5028857;28;20075;-71
2023/07/07 01:59:14;;;;;;;43.22;28.80;;;;;;;;;;5029998;28;20032;-71
2023/07/07 02:01:41;;;;;;;41.53;28.33;;;;;;;;;;5040962;28;20117;-70
2023/07/07 02:04:07;;;;;;;36.95;27.98;;;;;;;;;;5052070;28;20032;-71
2023/07/07 02:06:33;;;;;;;43.28;28.13;;;;;;;;;;5049695;28;20053;-71
2023/07/07 02:08:59;;;;;;;42.22;29.60;;;;;;;;;;5026758;28;20071;-71
2023/07/07 02:11:25;;;;;;;41.80;29.60;;;;;;;;;;5023291;28;20060;-71
2023/07/07 02:13:52;;;;;;;40.25;29.80;;;;;;;;;;5028110;28;20356;-71
2023/07/07 02:16:18;;;;;;;41.83;30.45;;;;;;;;;;5028013;28;20529;-71
2023/07/07 02:18:48;;;;;;;38.83;29.75;;;;;;;;;;5030216;28;20037;-70
2023/07/07 02:21:14;;;;;;;46.57;31.03;;;;;;;;;;5049581;28;20059;-71
2023/07/07 02:23:40;;;;;;;46.20;30.10;;;;;;;;;;5045741;28;20079;-71
2023/07/07 02:26:07;;;;;;;39.50;28.92;;;;;;;;;;5029848;28;20032;-71
2023/07/07 02:28:34;;;;;;;42.00;29.35;;;;;;;;;;5030703;28;20032;-72
2023/07/07 02:31:00;;;;;;;38.85;28.00;;;;;;;;;;5034460;28;20056;-71
2023/07/07 02:33:31;;;;;;;41.58;29.27;;;;;;;;;;5030201;28;20029;-70
2023/07/07 02:36:04;;;;;;;37.65;28.15;;;;;;;;;;5017914;28;20036;-69
2023/07/07 02:38:30;;;;;;;;;;;;;;;;;;5032319;28;20017;-70
2023/07/07 02:40:57;;;;;;;37.47;28.08;;;;;;;;;;5044665;28;20046;-71
2023/07/07 02:43:24;;;;;;;43.33;28.83;;;;;;;;;;5034193;28;20052;-71
2023/07/07 02:45:50;;;;;;;38.05;29.27;;;;;;;;;;5045815;28;20043;-70
2023/07/07 02:48:18;;;;;;;40.85;29.00;;;;;;;;;;5052892;28;20037;-70
2023/07/07 02:50:45;;;;;;;41.92;29.00;;;;;;;;;;5030036;28;20029;-70
2023/07/07 02:53:12;;;;;;;35.47;27.90;;;;;;;;;;5034225;28;20033;-70
2023/07/07 02:55:38;;;;;;;43.97;28.77;;;;;;;;;;5029147;28;20029;-70
2023/07/07 02:58:04;;;;;;;39.30;29.45;;;;;;;;;;5031611;28;20021;-71
2023/07/07 03:00:30;;;;;;;45.58;27.10;;;;;;;;;;5028873;28;20054;-71
2023/07/07 03:02:57;;;;;;;36.20;27.27;;;;;;;;;;5031920;28;20028;-71
2023/07/07 03:05:23;;;;;;;42.42;28.15;;;;;;;;;;5029509;28;20041;-71
2023/07/07 03:07:49;;;;;;;37.05;27.20;;;;;;;;;;5049904;28;20037;-70
2023/07/07 03:10:15;;;;;;;40.05;26.63;;;;;;;;;;5015909;28;20047;-71
2023/07/07 03:12:42;;;;;;;43.38;27.05;;;;;;;;;;5048645;28;20033;-71
2023/07/07 03:15:08;;;;;;;42.15;28.10;;;;;;;;;;5043920;28;20056;-71
2023/07/07 03:17:41;;;;;;;37.00;27.92;;;;;;;;;;5028056;28;20032;-71
2023/07/07 03:20:10;;;;;;;36.72;28.02;;;;;;;;;;5028253;28;20956;-71
2023/07/07 03:22:36;;;;;;;41.58;27.33;;;;;;;;;;5029521;28;20033;-71
2023/07/07 03:25:03;;;;;;;43.28;26.98;;;;;;;;;;5029196;28;20033;-71
2023/07/07 03:27:42;;;;;;;39.28;26.65;;;;;;;;;;5028341;28;20037;-71
2023/07/07 03:30:17;;;;;;;35.95;27.75;;;;;;;;;;5030680;28;20174;-71
2023/07/07 03:32:58;;;;;;;36.13;27.20;;;;;;;;;;5028150;28;20029;-70
2023/07/07 03:35:26;;;;;;;41.10;26.52;;;;;;;;;;5011318;28;20092;-70
2023/07/07 03:37:53;;;;;;;36.95;26.77;;;;;;;;;;5027902;28;20061;-71
2023/07/07 03:40:19;;;;;;;42.40;28.52;;;;;;;;;;5015066;28;20017;-70
2023/07/07 03:42:45;;;;;;;38.30;27.92;;;;;;;;;;5045863;28;20061;-69
2023/07/07 03:45:13;;;;;;;41.97;27.45;;;;;;;;;;5012207;28;20072;-70
2023/07/07 03:47:40;;;;;;;42.95;27.92;;;;;;;;;;5011379;28;20454;-70
2023/07/07 03:50:08;;;;;;;43.17;27.30;;;;;;;;;;5014617;28;20061;-70
2023/07/07 03:52:35;;;;;;;39.10;27.38;;;;;;;;;;5027072;28;20033;-70
2023/07/07 03:55:02;;;;;;;41.78;28.85;;;;;;;;;;5015648;28;20545;-71
2023/07/07 03:57:29;;;;;;;43.25;27.58;;;;;;;;;;5028987;28;20017;-71
2023/07/07 03:59:55;;;;;;;47.65;27.38;;;;;;;;;;5033032;28;20031;-70
2023/07/07 04:02:21;;;;;;;30.88;25.88;;;;;;;;;;5032061;28;20490;-71
2023/07/07 04:04:48;;;;;;;42.03;27.27;;;;;;;;;;5032385;28;20517;-71
2023/07/07 04:07:14;;;;;;;34.67;25.33;;;;;;;;;;5050823;28;20444;-70
2023/07/07 04:09:40;;;;;;;33.90;25.20;;;;;;;;;;5036070;28;20025;-72
2023/07/07 04:12:10;;;;;;;34.30;25.42;;;;;;;;;;5001154;28;20079;-71
2023/07/07 04:14:37;;;;;;;37.45;24.95;;;;;;;;;;5032683;28;20025;-71
2023/07/07 04:17:03;;;;;;;33.53;25.88;;;;;;;;;;5032975;28;20433;-72
2023/07/07 04:19:30;;;;;;;34.70;25.40;;;;;;;;;;5036143;28;20036;-70
2023/07/07 04:21:56;;;;;;;35.45;25.42;;;;;;;;;;5033189;28;20029;-72
2023/07/07 04:24:22;;;;;;;36.33;23.65;;;;;;;;;;5028687;28;20043;-71
2023/07/07 04:26:50;;;;;;;33.92;23.65;;;;;;;;;;5046695;28;20045;-72
2023/07/07 04:29:16;;;;;;;27.88;22.30;;;;;;;;;;5050049;28;20028;-70
2023/07/07 04:31:45;;;;;;;32.10;21.77;;;;;;;;;;5049758;28;20044;-70
2023/07/07 04:34:11;;;;;;;28.73;20.42;;;;;;;;;;5050671;28;20029;-71
2023/07/07 04:36:37;;;;;;;27.80;17.73;;;;;;;;;;5031422;28;20159;-71
2023/07/07 04:39:03;;;;;;;22.30;16.15;;;;;;;;;;5031480;28;20171;-70
2023/07/07 04:41:29;;;;;;;21.77;15.52;;;;;;;;;;5055765;28;20443;-70
2023/07/07 04:43:57;;;;;;;20.92;14.05;;;;;;;;;;5048448;28;20102;-70
2023/07/07 04:46:27;;;;;;;19.25;13.85;;;;;;;;;;5046612;28;20031;-71
2023/07/07 04:48:53;;;;;;;17.98;13.48;;;;;;;;;;5048101;28;20051;-70
2023/07/07 04:51:20;;;;;;;17.52;12.68;;;;;;;;;;5033939;28;20028;-70
2023/07/07 04:53:46;;;;;;;16.45;12.07;;;;;;;;;;5034290;28;20033;-70
2023/07/07 04:56:17;;;;;;;19.38;12.10;;;;;;;;;;5050494;28;20021;-70
2023/07/07 04:58:44;;;;;;;14.85;11.85;;;;;;;;;;5048526;28;20025;-71
2023/07/07 05:01:18;;;;;;;21.35;11.60;;;;;;;;;;5032853;28;20029;-71
2023/07/07 05:03:45;;;;;;;15.57;11.13;;;;;;;;;;5033471;28;20519;-71
2023/07/07 05:06:11;;;;;;;16.42;11.57;;;;;;;;;;5046327;28;20041;-71
2023/07/07 05:08:38;;;;;;;19.42;10.63;;;;;;;;;;5032382;28;20044;-71
2023/07/07 05:11:05;;;;;;;17.63;11.40;;;;;;;;;;5048489;28;20032;-71
2023/07/07 05:13:31;;;;;;;14.82;10.55;;;;;;;;;;5028532;28;20041;-71
2023/07/07 05:16:00;;;;;;;13.82;11.00;;;;;;;;;;5025774;28;20033;-71
2023/07/07 05:18:27;;;;;;;16.45;11.60;;;;;;;;;;5029997;28;20024;-71
2023/07/07 05:20:53;;;;;;;20.92;12.02;;;;;;;;;;5047864;28;20041;-71
2023/07/07 05:23:19;;;;;;;19.20;11.10;;;;;;;;;;5047769;28;20032;-72
2023/07/07 05:25:46;;;;;;;14.23;10.73;;;;;;;;;;5044966;28;20044;-71
2023/07/07 05:28:12;;;;;;;14.25;10.30;;;;;;;;;;5050350;28;20402;-71
2023/07/07 05:30:42;;;;;;;16.08;11.15;;;;;;;;;;5031603;28;20375;-70
2023/07/07 05:33:11;;;;;;;14.77;11.18;;;;;;;;;;5037216;28;20081;-70
2023/07/07 05:35:45;;;;;;;14.30;10.60;;;;;;;;;;5047549;28;20040;-72
2023/07/07 05:38:11;;;;;;;13.25;9.80;;;;;;;;;;5048300;28;20033;-71
2023/07/07 05:40:40;;;;;;;17.30;9.80;;;;;;;;;;5048269;28;20041;-72
2023/07/07 05:43:06;;;;;;;13.27;9.93;;;;;;;;;;5047265;28;20028;-71
2023/07/07 05:45:32;;;;;;;19.38;9.73;;;;;;;;;;5046095;28;20039;-72
2023/07/07 05:47:58;;;;;;;14.95;9.52;;;;;;;;;;5043953;28;20414;-71
2023/07/07 05:50:25;;;;;;;13.88;9.23;;;;;;;;;;5029296;28;20241;-70
2023/07/07 05:52:52;;;;;;;13.00;9.75;;;;;;;;;;5033074;28;20024;-72
2023/07/07 05:55:24;;;;;;;15.52;9.80;;;;;;;;;;5048955;28;20069;-71
2023/07/07 05:57:50;;;;;;;18.40;9.50;;;;;;;;;;5049853;28;20061;-70
2023/07/07 06:00:17;;;;;;;14.77;8.77;;;;;;;;;;5048957;28;20040;-71
2023/07/07 06:02:43;;;;;;;11.18;9.00;;;;;;;;;;5049051;28;20161;-71
2023/07/07 06:05:09;;;;;;;12.98;8.93;;;;;;;;;;5049960;28;20141;-71
2023/07/07 06:07:35;;;;;;;13.27;8.98;;;;;;;;;;5037593;28;20040;-70
2023/07/07 06:10:02;;;;;;;14.32;8.55;;;;;;;;;;5044061;28;20029;-70
2023/07/07 06:12:29;;;;;;;14.07;8.50;;;;;;;;;;5044341;28;20072;-70
2023/07/07 06:14:55;;;;;;;14.82;8.80;;;;;;;;;;5049439;28;20036;-71
2023/07/07 06:17:21;;;;;;;17.65;8.38;;;;;;;;;;5015344;28;20061;-73
2023/07/07 06:19:48;;;;;;;10.73;7.63;;;;;;;;;;5028941;28;20083;-73
2023/07/07 06:22:14;;;;;;;14.32;8.10;;;;;;;;;;5052582;28;20507;-73
2023/07/07 06:24:41;;;;;;;12.65;7.38;;;;;;;;;;5022521;28;20036;-73
2023/07/07 06:27:07;;;;;;;14.93;7.97;;;;;;;;;;5044349;28;20029;-73
2023/07/07 06:29:35;;;;;;;11.23;7.18;;;;;;;;;;5052131;28;20053;-72
2023/07/07 06:32:01;;;;;;;13.40;6.55;;;;;;;;;;5047244;28;20033;-73
2023/07/07 06:34:28;;;;;;;11.70;7.68;;;;;;;;;;5043712;28;20144;-72
2023/07/07 06:36:54;;;;;;;10.38;6.20;;;;;;;;;;5015260;28;20444;-73
2023/07/07 06:39:20;;;;;;;10.25;6.20;;;;;;;;;;5048831;28;20043;-71
2023/07/07 06:41:46;;;;;;;9.10;6.07;;;;;;;;;;5029212;28;20059;-72
2023/07/07 06:44:12;;;;;;;10.95;6.70;;;;;;;;;;5026212;28;20398;-71
2023/07/07 06:46:39;;;;;;;11.93;5.70;;;;;;;;;;5045942;28;20079;-71
2023/07/07 06:49:05;;;;;;;8.45;6.35;;;;;;;;;;5031116;28;20029;-71
2023/07/07 06:51:31;;;;;;;15.10;6.45;;;;;;;;;;5045265;28;20064;-71
2023/07/07 06:53:59;;;;;;;7.53;5.88;;;;;;;;;;5047903;28;20124;-71
2023/07/07 06:56:25;;;;;;;11.57;6.32;;;;;;;;;;5030751;28;20036;-71
2023/07/07 06:58:51;;;;;;;9.77;5.70;;;;;;;;;;5041560;28;20041;-71
2023/07/07 07:01:17;;;;;;;11.43;5.88;;;;;;;;;;5041976;28;20044;-71
2023/07/07 07:03:43;;;;;;;12.75;6.07;;;;;;;;;;5050410;28;20094;-72
2023/07/07 07:06:10;;;;;;;10.52;5.82;;;;;;;;;;5048595;28;20049;-71
2023/07/07 07:08:36;;;;;;;12.30;6.25;;;;;;;;;;5048121;28;20036;-70
2023/07/07 07:11:02;;;;;;;10.23;5.82;;;;;;;;;;5048216;28;20081;-72
2023/07/07 07:13:28;;;;;;;9.52;5.55;;;;;;;;;;5029929;28;20037;-71
2023/07/07 07:15:55;;;;;;;10.48;5.72;;;;;;;;;;5042569;28;20053;-71
2023/07/07 07:18:23;;;;;;;11.25;5.90;;;;;;;;;;5046097;28;20044;-71
2023/07/07 07:20:50;;;;;;;13.27;5.25;;;;;;;;;;5046597;28;20027;-71
2023/07/07 07:23:16;;;;;;;15.50;5.78;;;;;;;;;;5043289;28;20032;-71
2023/07/07 07:25:44;;;;;;;11.70;5.40;;;;;;;;;;5042091;28;20036;-70
2023/07/07 07:28:11;;;;;;;16.10;5.22;;;;;;;;;;5027442;28;20082;-70
2023/07/07 07:30:37;;;;;;;8.63;4.70;;;;;;;;;;5042959;28;20032;-71
2023/07/07 07:33:04;;;;;;;10.90;5.70;;;;;;;;;;5045343;28;20091;-71
2023/07/07 07:35:30;;;;;;;12.80;4.82;;;;;;;;;;5045552;28;20067;-71
2023/07/07 07:37:56;;;;;;;8.73;5.07;;;;;;;;;;5042032;28;20056;-71
2023/07/07 07:40:23;;;;;;;9.55;4.63;;;;;;;;;;5046823;28;20152;-71
2023/07/07 07:42:50;;;;;;;10.48;5.22;;;;;;;;;;5044806;28;20029;-72
2023/07/07 07:45:18;;;;;;;8.10;5.18;;;;;;;;;;5044440;28;20146;-71
2023/07/07 07:47:44;;;;;;;14.00;5.38;;;;;;;;;;5048212;28;20049;-71
2023/07/07 07:50:10;;;;;;;8.75;5.10;;;;;;;;;;5042946;28;20474;-71
2023/07/07 07:52:36;;;;;;;12.85;5.18;;;;;;;;;;5043093;28;20047;-71
2023/07/07 07:55:03;;;;;;;9.27;4.88;;;;;;;;;;5045916;28;20080;-71
2023/07/07 07:57:29;;;;;;;9.60;4.60;;;;;;;;;;5025812;28;20036;-72
2023/07/07 07:59:55;;;;;;;10.52;5.03;;;;;;;;;;5045103;28;20035;-71
2023/07/07 08:02:21;;;;;;;9.70;4.30;;;;;;;;;;5020250;28;20137;-71
2023/07/07 08:04:47;;;;;;;10.27;4.60;;;;;;;;;;5044140;28;20030;-73
2023/07/07 08:07:13;;;;;;;6.85;4.20;;;;;;;;;;5050006;28;20049;-72
2023/07/07 08:09:40;;;;;;;8.93;4.15;;;;;;;;;;5052714;28;20041;-70
2023/07/07 08:12:06;;;;;;;8.77;3.97;;;;;;;;;;5048929;28;20040;-72
2023/07/07 08:14:33;;;;;;;7.53;4.28;;;;;;;;;;5051390;28;20092;-70
2023/07/07 08:17:02;;;;;;;11.38;4.25;;;;;;;;;;5040786;28;20029;-72
2023/07/07 08:19:29;;;;;;;10.65;4.43;;;;;;;;;;5050013;28;20394;-71
2023/07/07 08:21:57;;;;;;;11.50;4.85;;;;;;;;;;5045204;28;20029;-71
2023/07/07 08:24:23;;;;;;;7.10;4.03;;;;;;;;;;5043310;28;20057;-71
2023/07/07 08:26:49;;;;;;;6.85;3.42;;;;;;;;;;5045611;28;20021;-70
2023/07/07 08:29:16;;;;;;;11.88;3.85;;;;;;;;;;5044708;28;20072;-71
2023/07/07 08:31:42;;;;;;;8.07;4.03;;;;;;;;;;5044526;28;20028;-72
2023/07/07 08:34:09;;;;;;;8.10;3.80;;;;;;;;;;5046040;28;20041;-71
2023/07/07 08:36:35;;;;;;;9.30;3.70;;;;;;;;;;5043038;28;20071;-72
2023/07/07 08:39:12;;;;;;;7.57;3.80;;;;;;;;;;5045466;28;20048;-71
2023/07/07 08:41:40;;;;;;;6.00;3.50;;;;;;;;;;5045266;28;20056;-71
2023/07/07 08:44:08;;;;;;;7.97;3.58;;;;;;;;;;5039772;28;20041;-72
2023/07/07 08:47:09;;;;;;;6.53;3.28;;;;;;;;;;5047481;28;20052;-72
2023/07/07 08:49:38;;;;;;;6.15;3.35;;;;;;;;;;4995149;28;20039;-73
2023/07/07 08:52:12;;;;;;;9.85;3.97;;;;;;;;;;5051101;28;20111;-72
2023/07/07 08:54:46;;;;;;;6.78;3.00;;;;;;;;;;5030451;28;20044;-72
2023/07/07 08:57:13;;;;;;;6.75;3.00;;;;;;;;;;5050376;28;20036;-72
2023/07/07 08:59:48;;;;;;;8.73;3.40;;;;;;;;;;5019064;28;20116;-71
2023/07/07 09:02:14;;;;;;;10.57;4.18;;;;;;;;;;5047352;28;20490;-72
2023/07/07 09:04:48;;;;;;;9.68;3.17;;;;;;;;;;5047672;28;20021;-72
2023/07/07 09:07:24;;;;;;;7.32;3.10;;;;;;;;;;5042248;28;20067;-72
2023/07/07 09:09:59;;;;;;;8.77;3.28;;;;;;;;;;5045921;28;20604;-71
2023/07/07 09:12:28;;;;;;;10.50;2.95;;;;;;;;;;5047609;28;20036;-72
2023/07/07 09:14:56;;;;;;;5.83;2.90;;;;;;;;;;5030054;28;20025;-72
2023/07/07 09:17:25;;;;;;;5.18;2.85;;;;;;;;;;5052205;28;20042;-71
2023/07/07 09:19:53;;;;;;;5.70;2.60;;;;;;;;;;5059726;28;20159;-74
2023/07/07 09:22:31;;;;;;;3.67;2.22;;;;;;;;;;5052595;28;20028;-71
2023/07/07 09:25:00;;;;;;;4.47;2.70;;;;;;;;;;5050042;28;20028;-72
2023/07/07 09:27:36;;;;;;;5.53;2.47;;;;;;;;;;5032178;28;20072;-71
2023/07/07 09:30:11;;;;;;;5.07;2.42;;;;;;;;;;5046774;28;20025;-71
2023/07/07 09:32:38;;;;;;;6.85;2.60;;;;;;;;;;5047378;28;20450;-71
2023/07/07 09:35:04;;;;;;;5.97;2.30;;;;;;;;;;5051674;28;20139;-71
2023/07/07 09:37:42;;;;;;;4.90;2.47;;;;;;;;;;5012976;28;20363;-73
2023/07/07 09:40:41;;;;;;;4.95;2.60;;;;;;;;;;5041752;28;20036;-70
2023/07/07 09:43:37;;;;;;;7.50;2.80;;;;;;;;;;5027701;28;20037;-72
2023/07/07 09:46:13;;;;;;;4.53;2.35;;;;;;;;;;4928815;28;20152;-71
2023/07/07 09:48:44;;;;;;;4.93;2.20;;;;;;;;;;5049451;28;20017;-72
2023/07/07 09:51:45;;;;;;;4.15;2.28;;;;;;;;;;5048198;28;20121;-70
2023/07/07 09:54:15;;;;;;;3.85;2.08;;;;;;;;;;4989653;28;20586;-71
2023/07/07 09:56:57;;;;;;;3.30;2.10;;;;;;;;;;5023842;28;20175;-71
2023/07/07 09:59:29;;;;;;;5.78;2.53;;;;;;;;;;5048381;28;20086;-71
2023/07/07 10:01:58;;;;;;;4.15;2.58;;;;;;;;;;5047978;28;20028;-72
2023/07/07 10:04:25;;;;;;;7.88;2.72;;;;;;;;;;5049043;28;20037;-72
2023/07/07 10:06:55;;;;;;;4.50;2.30;;;;;;;;;;5030159;28;20050;-71
2023/07/07 10:09:21;;;;;;;5.18;2.60;;;;;;;;;;5045764;28;20025;-71
2023/07/07 10:11:47;;;;;;;7.03;2.40;;;;;;;;;;5046762;28;20029;-71
2023/07/07 10:14:15;;;;;;;5.18;2.28;;;;;;;;;;5043532;28;20040;-71
2023/07/07 10:16:59;;;;;;;4.13;2.35;;;;;;;;;;5047579;28;20044;-71
2023/07/07 10:19:26;;;;;;;6.97;2.30;;;;;;;;;;5048633;28;20055;-70
2023/07/07 10:21:52;;;;;;;4.38;2.20;;;;;;;;;;5042707;28;20040;-70
2023/07/07 10:24:18;;;;;;;4.63;2.60;;;;;;;;;;5020926;28;20041;-73
2023/07/07 10:26:47;;;;;;;4.28;2.40;;;;;;;;;;5053284;28;20033;-72
2023/07/07 10:29:22;;;;;;;4.40;2.40;;;;;;;;;;5053304;28;20033;-71
2023/07/07 10:31:49;;;;;;;5.32;2.33;;;;;;;;;;5047184;28;20044;-69
2023/07/07 10:34:23;;;;;;;4.85;3.00;;;;;;;;;;5048731;28;20029;-71
2023/07/07 10:36:49;;;;;;;5.18;2.58;;;;;;;;;;5044477;28;20029;-71
2023/07/07 10:39:15;;;;;;;9.50;2.53;;;;;;;;;;5050239;28;20079;-71
2023/07/07 10:41:41;;;;;;;5.05;2.35;;;;;;;;;;5048945;28;20031;-70
2023/07/07 10:44:08;;;;;;;7.15;2.30;;;;;;;;;;5030933;28;20068;-72
2023/07/07 10:46:34;;;;;;;6.35;2.88;;;;;;;;;;5031513;28;20037;-71
2023/07/07 10:49:03;;;;;;;4.93;2.45;;;;;;;;;;5030389;28;20036;-70
2023/07/07 10:51:42;;;;;;;4.97;3.00;;;;;;;;;;5044351;28;20120;-72
2023/07/07 10:54:27;;;;;;;5.00;2.30;;;;;;;;;;5028754;28;20087;-71
2023/07/07 10:56:57;;;;;;;6.63;2.63;;;;;;;;;;5046712;28;20048;-71
2023/07/07 10:59:27;;;;;;;7.13;2.55;;;;;;;;;;5030231;28;20029;-72
2023/07/07 11:01:56;;;;;;;5.27;2.73;;;;;;;;;;5046193;28;20029;-72
2023/07/07 11:04:41;;;;;;;3.63;2.30;;;;;;;;;;5029763;28;20386;-71
2023/07/07 11:07:16;;;;;;;5.03;2.58;;;;;;;;;;5048252;28;20049;-70
2023/07/07 11:09:45;;;;;;;4.50;2.60;;;;;;;;;;5043643;28;20116;-71
2023/07/07 11:12:15;;;;;;;11.82;3.03;;;;;;;;;;5044116;28;20029;-72
2023/07/07 11:15:08;;;;;;;6.03;2.95;;;;;;;;;;5048560;28;20052;-71
2023/07/07 11:17:42;;;;;;;6.47;2.70;;;;;;;;;;5010933;28;20431;-70
2023/07/07 11:20:08;;;;;;;5.90;3.03;;;;;;;;;;5047788;28;20047;-72
2023/07/07 11:22:53;;;;;;;4.65;2.55;;;;;;;;;;5051039;28;20379;-71
2023/07/07 11:25:32;;;;;;;3.92;2.33;;;;;;;;;;5049079;28;20379;-71
2023/07/07 11:27:58;;;;;;;4.28;2.85;;;;;;;;;;5050193;28;20035;-71
2023/07/07 11:30:36;;;;;;;5.88;2.55;;;;;;;;;;5049592;28;20033;-71
2023/07/07 11:33:16;;;;;;;4.95;2.60;;;;;;;;;;5048646;28;20025;-70
2023/07/07 11:35:42;;;;;;;4.50;2.90;;;;;;;;;;5041797;28;20057;-71
2023/07/07 11:38:15;;;;;;;8.23;3.08;;;;;;;;;;5036876;28;20550;-71
2023/07/07 11:40:41;;;;;;;4.05;2.80;;;;;;;;;;5011044;28;20068;-70
2023/07/07 11:43:19;;;;;;;4.68;2.63;;;;;;;;;;5027612;28;20029;-72
2023/07/07 11:45:45;;;;;;;8.02;2.50;;;;;;;;;;5028633;28;20033;-70
2023/07/07 11:48:18;;;;;;;4.43;2.67;;;;;;;;;;5020570;28;20694;-71
2023/07/07 11:50:52;;;;;;;10.60;3.03;;;;;;;;;;5046570;28;20489;-69
2023/07/07 11:53:28;;;;;;;8.63;3.17;;;;;;;;;;5048715;28;20462;-71
2023/07/07 11:56:05;;;;;;;7.07;2.65;;;;;;;;;;5047175;28;20040;-70
2023/07/07 11:58:49;;;;;;;5.40;2.67;;;;;;;;;;5048359;28;20064;-70
2023/07/07 12:01:19;;;;;;;5.82;2.78;;;;;;;;;;5047958;28;20043;-70
2023/07/07 12:03:55;;;;;;;4.40;2.75;;;;;;;;;;5047163;28;20089;-70
2023/07/07 12:06:45;;;;;;;5.20;2.97;;;;;;;;;;5047030;28;20064;-71
2023/07/07 12:09:26;;;;;;;6.82;3.25;;;;;;;;;;5048453;28;20025;-72
2023/07/07 12:12:04;;;;;;;6.85;2.95;;;;;;;;;;5047632;28;20392;-72
2023/07/07 12:14:43;;;;;;;5.93;3.08;;;;;;;;;;5050242;28;20026;-73
2023/07/07 12:17:15;;;;;;;7.28;2.78;;;;;;;;;;5051014;28;20033;-70
2023/07/07 12:19:44;;;;;;;5.28;2.72;;;;;;;;;;5050805;28;20414;-71
2023/07/07 12:22:17;;;;;;;4.85;3.25;;;;;;;;;;5047749;28;20033;-71
2023/07/07 12:25:04;;;;;;;4.88;2.70;;;;;;;;;;5039282;28;20067;-70
2023/07/07 12:27:33;;;;;;;4.68;3.00;;;;;;;;;;5021296;28;20052;-70
2023/07/07 12:30:01;;;;;;;5.38;3.15;;;;;;;;;;5052527;28;20017;-70
2023/07/07 12:32:27;;;;;;;6.95;3.08;;;;;;;;;;5050810;28;20025;-71
2023/07/07 12:35:06;;;;;;;8.13;3.10;;;;;;;;;;5052315;28;20033;-71
2023/07/07 12:37:34;;;;;;;8.70;5.07;;;;;;;;;;5049639;28;20060;-70
2023/07/07 12:40:05;;;;;;;5.15;3.60;;;;;;;;;;5052186;28;20305;-71
2023/07/07 12:42:32;;;;;;;7.50;3.30;;;;;;;;;;5051807;28;20153;-71
2023/07/07 12:45:07;;;;;;;5.95;3.22;;;;;;;;;;5052072;28;20053;-70
2023/07/07 12:47:36;;;;;;;7.53;3.13;;;;;;;;;;5051767;28;20043;-71
2023/07/07 12:50:03;;;;;;;5.23;3.10;;;;;;;;;;5052103;28;20089;-73
2023/07/07 12:52:43;;;;;;;5.85;3.45;;;;;;;;;;5050032;28;20029;-72
2023/07/07 12:55:20;;;;;;;6.20;3.30;;;;;;;;;;5051822;28;20029;-70
2023/07/07 12:58:06;;;;;;;4.68;2.85;;;;;;;;;;5052082;28;20036;-72
2023/07/07 13:00:39;;;;;;;8.45;2.90;;;;;;;;;;5048260;28;20029;-72
2023/07/07 13:03:17;;;;;;;5.30;3.28;;;;;;;;;;5041861;28;20033;-72
2023/07/07 13:05:48;;;;;;;5.28;3.58;;;;;;;;;;5052536;28;20139;-72
2023/07/07 13:08:33;;;;;;;6.57;3.72;;;;;;;;;;5039577;28;20033;-73
2023/07/07 13:11:03;;;;;;;4.85;3.00;;;;;;;;;;5036283;28;20120;-72
2023/07/07 13:13:34;;;;;;;7.03;3.25;;;;;;;;;;5045806;28;20097;-71
2023/07/07 13:16:00;;;;;;;4.93;2.90;;;;;;;;;;5048573;28;20136;-71
2023/07/07 13:18:26;;;;;;;4.60;3.20;;;;;;;;;;5051303;28;20136;-72
2023/07/07 13:20:53;;;;;;;6.80;3.42;;;;;;;;;;5050903;28;20036;-72
2023/07/07 13:23:22;;;;;;;4.20;3.00;;;;;;;;;;5049687;28;20090;-71
2023/07/07 13:25:48;;;;;;;8.53;3.67;;;;;;;;;;5051564;28;20471;-71
2023/07/07 13:28:15;;;;;;;5.47;3.10;;;;;;;;;;5049922;28;20041;-72
2023/07/07 13:30:46;;;;;;;8.88;3.13;;;;;;;;;;5051364;28;20017;-72
2023/07/07 13:33:13;;;;;;;9.95;2.90;;;;;;;;;;5050543;28;20033;-72
2023/07/07 13:35:40;;;;;;;5.55;2.97;;;;;;;;;;5050463;28;20043;-72
2023/07/07 13:38:09;;;;;;;6.97;3.30;;;;;;;;;;5050507;28;20102;-71
2023/07/07 13:40:36;;;;;;;5.72;3.38;;;;;;;;;;5052256;28;20037;-71
2023/07/07 13:43:02;;;;;;;5.40;3.25;;;;;;;;;;5050508;28;20029;-72
2023/07/07 13:45:31;;;;;;;9.57;2.97;;;;;;;;;;5034008;28;20029;-72
2023/07/07 13:47:58;;;;;;;6.88;2.78;;;;;;;;;;5051301;28;20163;-72
2023/07/07 13:50:26;;;;;;;5.50;3.60;;;;;;;;;;5051482;28;20037;-72
2023/07/07 13:52:54;;;;;;;5.03;2.97;;;;;;;;;;5033859;28;20067;-71
2023/07/07 13:55:20;;;;;;;12.70;3.10;;;;;;;;;;5032958;28;20959;-70
2023/07/07 13:57:46;;;;;;;7.82;2.83;;;;;;;;;;5052016;28;20072;-72
2023/07/07 14:00:20;;;;;;;4.25;2.78;;;;;;;;;;5034816;28;20440;-71
2023/07/07 14:02:46;;;;;;;5.25;3.00;;;;;;;;;;5050919;28;20126;-71
2023/07/07 14:05:15;;;;;;;8.70;3.10;;;;;;;;;;5032554;28;20087;-73
2023/07/07 14:07:42;;;;;;;8.60;3.00;;;;;;;;;;5049240;28;20032;-71
2023/07/07 14:10:27;;;;;;;6.05;2.80;;;;;;;;;;5037058;28;20029;-70
2023/07/07 14:12:55;;;;;;;7.47;3.00;;;;;;;;;;5050691;28;20397;-71
2023/07/07 14:15:31;;;;;;;14.90;3.05;;;;;;;;;;5050448;28;20052;-71
2023/07/07 14:17:57;;;;;;;6.63;2.90;;;;;;;;;;5048665;28;20044;-72
2023/07/07 14:20:25;;;;;;;12.95;3.15;;;;;;;;;;5046525;28;20088;-71
2023/07/07 14:22:52;;;;;;;9.23;2.88;;;;;;;;;;5029696;28;20152;-71
2023/07/07 14:25:20;;;;;;;8.93;3.30;;;;;;;;;;5031413;28;20090;-72
2023/07/07 14:27:47;;;;;;;7.70;2.78;;;;;;;;;;5045414;28;20104;-72
2023/07/07 14:30:19;;;;;;;4.97;2.72;;;;;;;;;;5031081;28;20120;-70
2023/07/07 14:32:47;;;;;;;4.85;2.70;;;;;;;;;;5048995;28;20021;-71
2023/07/07 14:35:18;;;;;;;6.63;3.00;;;;;;;;;;5048036;28;20031;-72
2023/07/07 14:37:48;;;;;;;4.65;2.70;;;;;;;;;;5047059;28;20029;-71
2023/07/07 14:40:33;;;;;;;6.82;3.28;;;;;;;;;;5046433;28;20025;-71
2023/07/07 14:43:00;;;;;;;5.57;3.25;;;;;;;;;;5043310;28;20036;-71
2023/07/07 14:45:35;;;;;;;6.47;3.20;;;;;;;;;;5049667;28;20183;-71